sensor_id;sensor_type;location;lat;lon;timestamp;P1;durP1;ratioP1;P2;durP2;ratioP2
36597;SDS011;22607;49.550;11.940;2024-02-04T00:00:29;7.50;;;2.72;;
36597;SDS011;22607;49.550;11.940;2024-02-04T00:02:56;6.05;;;2.15;;
36597;SDS011;22607;49.550;11.940;2024-02-04T00:05:22;6.80;;;2.30;;
36597;SDS011;22607;49.550;11.940;2024-02-04T00:07:50;6.70;;;2.63;;
36597;SDS011;22607;49.550;11.940;2024-02-04T00:10:16;6.82;;;2.63;;
36597;SDS011;22607;49.550;11.940;2024-02-04T00:12:44;7.10;;;2.38;;
36597;SDS011;22607;49.550;11.940;2024-02-04T00:15:11;6.30;;;2.28;;
36597;SDS011;22607;49.550;11.940;2024-02-04T00:17:38;6.72;;;2.38;;
36597;SDS011;22607;49.550;11.940;2024-02-04T00:20:05;7.18;;;2.28;;
36597;SDS011;22607;49.550;11.940;2024-02-04T00:22:33;6.43;;;2.42;;
36597;SDS011;22607;49.550;11.940;2024-02-04T00:25:00;7.20;;;2.55;;
36597;SDS011;22607;49.550;11.940;2024-02-04T00:27:31;7.60;;;2.55;;
36597;SDS011;22607;49.550;11.940;2024-02-04T00:30:06;7.45;;;2.22;;
36597;SDS011;22607;49.550;11.940;2024-02-04T00:32:33;6.85;;;2.10;;
36597;SDS011;22607;49.550;11.940;2024-02-04T00:35:00;5.70;;;2.10;;
36597;SDS011;22607;49.550;11.940;2024-02-04T00:37:27;5.85;;;1.90;;
36597;SDS011;22607;49.550;11.940;2024-02-04T00:39:55;6.72;;;2.58;;
36597;SDS011;22607;49.550;11.940;2024-02-04T00:42:22;7.30;;;2.38;;
36597;SDS011;22607;49.550;11.940;2024-02-04T00:44:49;7.00;;;2.75;;
36597;SDS011;22607;49.550;11.940;2024-02-04T00:47:15;6.22;;;2.28;;
36597;SDS011;22607;49.550;11.940;2024-02-04T00:49:44;7.18;;;2.72;;
36597;SDS011;22607;49.550;11.940;2024-02-04T00:52:10;7.68;;;2.60;;
36597;SDS011;22607;49.550;11.940;2024-02-04T00:54:37;7.53;;;2.70;;
36597;SDS011;22607;49.550;11.940;2024-02-04T00:57:04;6.80;;;2.17;;
36597;SDS011;22607;49.550;11.940;2024-02-04T00:59:30;6.55;;;2.40;;
36597;SDS011;22607;49.550;11.940;2024-02-04T01:01:57;6.05;;;2.13;;
36597;SDS011;22607;49.550;11.940;2024-02-04T01:04:25;6.82;;;2.83;;
36597;SDS011;22607;49.550;11.940;2024-02-04T01:06:51;5.47;;;1.83;;
36597;SDS011;22607;49.550;11.940;2024-02-04T01:09:28;7.18;;;2.28;;
36597;SDS011;22607;49.550;11.940;2024-02-04T01:11:56;6.93;;;2.53;;
36597;SDS011;22607;49.550;11.940;2024-02-04T01:14:22;6.47;;;2.00;;
36597;SDS011;22607;49.550;11.940;2024-02-04T01:16:49;6.05;;;2.15;;
36597;SDS011;22607;49.550;11.940;2024-02-04T01:19:15;7.13;;;2.33;;
36597;SDS011;22607;49.550;11.940;2024-02-04T01:21:42;6.15;;;2.25;;
36597;SDS011;22607;49.550;11.940;2024-02-04T01:24:10;6.63;;;2.20;;
36597;SDS011;22607;49.550;11.940;2024-02-04T01:26:38;6.15;;;2.13;;
36597;SDS011;22607;49.550;11.940;2024-02-04T01:29:04;6.88;;;2.00;;
36597;SDS011;22607;49.550;11.940;2024-02-04T01:31:32;6.57;;;2.30;;
36597;SDS011;22607;49.550;11.940;2024-02-04T01:33:59;7.05;;;2.10;;
36597;SDS011;22607;49.550;11.940;2024-02-04T01:36:26;6.22;;;2.20;;
36597;SDS011;22607;49.550;11.940;2024-02-04T01:38:52;5.88;;;1.90;;
36597;SDS011;22607;49.550;11.940;2024-02-04T01:41:19;5.63;;;1.80;;
36597;SDS011;22607;49.550;11.940;2024-02-04T01:43:49;6.40;;;2.10;;
36597;SDS011;22607;49.550;11.940;2024-02-04T01:46:16;7.25;;;1.98;;
36597;SDS011;22607;49.550;11.940;2024-02-04T01:48:44;5.60;;;1.95;;
36597;SDS011;22607;49.550;11.940;2024-02-04T01:51:10;6.28;;;1.80;;
36597;SDS011;22607;49.550;11.940;2024-02-04T01:53:39;5.22;;;1.63;;
36597;SDS011;22607;49.550;11.940;2024-02-04T01:56:10;4.95;;;1.70;;
36597;SDS011;22607;49.550;11.940;2024-02-04T01:58:39;6.30;;;2.00;;
36597;SDS011;22607;49.550;11.940;2024-02-04T02:01:06;5.93;;;1.98;;
36597;SDS011;22607;49.550;11.940;2024-02-04T02:03:35;5.93;;;1.80;;
36597;SDS011;22607;49.550;11.940;2024-02-04T02:06:02;5.35;;;1.50;;
36597;SDS011;22607;49.550;11.940;2024-02-04T02:08:29;4.72;;;1.48;;
36597;SDS011;22607;49.550;11.940;2024-02-04T02:10:57;4.65;;;1.38;;
36597;SDS011;22607;49.550;11.940;2024-02-04T02:13:37;4.57;;;1.42;;
36597;SDS011;22607;49.550;11.940;2024-02-04T02:16:07;5.03;;;1.80;;
36597;SDS011;22607;49.550;11.940;2024-02-04T02:18:44;4.78;;;1.42;;
36597;SDS011;22607;49.550;11.940;2024-02-04T02:24:27;5.32;;;1.60;;
36597;SDS011;22607;49.550;11.940;2024-02-04T02:27:05;4.07;;;1.27;;
36597;SDS011;22607;49.550;11.940;2024-02-04T02:29:32;4.97;;;1.67;;
36597;SDS011;22607;49.550;11.940;2024-02-04T02:31:59;4.78;;;1.40;;
36597;SDS011;22607;49.550;11.940;2024-02-04T02:34:27;5.63;;;1.50;;
36597;SDS011;22607;49.550;11.940;2024-02-04T02:42:40;6.00;;;1.60;;
36597;SDS011;22607;49.550;11.940;2024-02-04T02:45:09;4.85;;;1.20;;
36597;SDS011;22607;49.550;11.940;2024-02-04T02:47:38;5.30;;;1.65;;
36597;SDS011;22607;49.550;11.940;2024-02-04T02:50:07;4.95;;;1.40;;
36597;SDS011;22607;49.550;11.940;2024-02-04T02:52:41;4.95;;;1.52;;
36597;SDS011;22607;49.550;11.940;2024-02-04T02:55:08;4.70;;;1.60;;
36597;SDS011;22607;49.550;11.940;2024-02-04T02:57:34;5.05;;;1.50;;
36597;SDS011;22607;49.550;11.940;2024-02-04T03:00:02;4.05;;;1.30;;
36597;SDS011;22607;49.550;11.940;2024-02-04T03:02:34;4.32;;;1.42;;
36597;SDS011;22607;49.550;11.940;2024-02-04T03:05:00;5.90;;;1.33;;
36597;SDS011;22607;49.550;11.940;2024-02-04T03:07:27;5.10;;;1.45;;
36597;SDS011;22607;49.550;11.940;2024-02-04T03:09:54;5.03;;;1.58;;
36597;SDS011;22607;49.550;11.940;2024-02-04T03:12:21;4.68;;;1.40;;
36597;SDS011;22607;49.550;11.940;2024-02-04T03:14:47;3.92;;;1.30;;
36597;SDS011;22607;49.550;11.940;2024-02-04T03:17:14;5.43;;;1.75;;
36597;SDS011;22607;49.550;11.940;2024-02-04T03:19:40;5.18;;;1.42;;
36597;SDS011;22607;49.550;11.940;2024-02-04T03:22:07;4.45;;;1.40;;
36597;SDS011;22607;49.550;11.940;2024-02-04T03:24:45;5.45;;;1.70;;
36597;SDS011;22607;49.550;11.940;2024-02-04T03:27:12;4.57;;;1.65;;
36597;SDS011;22607;49.550;11.940;2024-02-04T03:29:40;5.47;;;1.42;;
36597;SDS011;22607;49.550;11.940;2024-02-04T03:32:06;4.45;;;1.40;;
36597;SDS011;22607;49.550;11.940;2024-02-04T03:34:33;4.25;;;1.40;;
36597;SDS011;22607;49.550;11.940;2024-02-04T03:37:03;5.63;;;1.20;;
36597;SDS011;22607;49.550;11.940;2024-02-04T03:39:30;4.65;;;1.40;;
36597;SDS011;22607;49.550;11.940;2024-02-04T03:42:03;5.97;;;1.60;;
36597;SDS011;22607;49.550;11.940;2024-02-04T03:44:30;4.82;;;1.40;;
36597;SDS011;22607;49.550;11.940;2024-02-04T03:46:56;3.63;;;1.20;;
36597;SDS011;22607;49.550;11.940;2024-02-04T03:49:23;3.50;;;1.35;;
36597;SDS011;22607;49.550;11.940;2024-02-04T03:51:51;4.85;;;1.50;;
36597;SDS011;22607;49.550;11.940;2024-02-04T03:54:17;4.07;;;1.40;;
36597;SDS011;22607;49.550;11.940;2024-02-04T03:56:45;5.25;;;1.42;;
36597;SDS011;22607;49.550;11.940;2024-02-04T03:59:12;6.47;;;1.50;;
36597;SDS011;22607;49.550;11.940;2024-02-04T04:01:38;3.63;;;1.42;;
36597;SDS011;22607;49.550;11.940;2024-02-04T04:04:05;5.05;;;1.70;;
36597;SDS011;22607;49.550;11.940;2024-02-04T04:06:34;4.45;;;1.38;;
36597;SDS011;22607;49.550;11.940;2024-02-04T04:09:01;3.90;;;1.42;;
36597;SDS011;22607;49.550;11.940;2024-02-04T04:11:27;5.10;;;1.58;;
36597;SDS011;22607;49.550;11.940;2024-02-04T04:13:55;5.25;;;1.30;;
36597;SDS011;22607;49.550;11.940;2024-02-04T04:16:21;5.60;;;1.90;;
36597;SDS011;22607;49.550;11.940;2024-02-04T04:18:48;4.25;;;1.35;;
36597;SDS011;22607;49.550;11.940;2024-02-04T04:21:17;6.20;;;2.00;;
36597;SDS011;22607;49.550;11.940;2024-02-04T04:23:43;4.63;;;1.67;;
36597;SDS011;22607;49.550;11.940;2024-02-04T04:26:10;5.30;;;2.00;;
36597;SDS011;22607;49.550;11.940;2024-02-04T04:28:37;6.32;;;1.85;;
36597;SDS011;22607;49.550;11.940;2024-02-04T04:31:05;4.43;;;1.60;;
36597;SDS011;22607;49.550;11.940;2024-02-04T04:33:31;5.57;;;1.85;;
36597;SDS011;22607;49.550;11.940;2024-02-04T04:35:58;6.13;;;1.90;;
36597;SDS011;22607;49.550;11.940;2024-02-04T04:38:25;5.63;;;1.77;;
36597;SDS011;22607;49.550;11.940;2024-02-04T04:40:51;7.30;;;2.00;;
36597;SDS011;22607;49.550;11.940;2024-02-04T04:43:18;6.07;;;2.03;;
36597;SDS011;22607;49.550;11.940;2024-02-04T04:45:45;6.03;;;1.80;;
36597;SDS011;22607;49.550;11.940;2024-02-04T04:48:12;5.85;;;2.00;;
36597;SDS011;22607;49.550;11.940;2024-02-04T04:50:39;6.30;;;1.83;;
36597;SDS011;22607;49.550;11.940;2024-02-04T04:53:06;6.95;;;1.90;;
36597;SDS011;22607;49.550;11.940;2024-02-04T04:55:33;6.60;;;2.15;;
36597;SDS011;22607;49.550;11.940;2024-02-04T04:58:00;6.93;;;2.03;;
36597;SDS011;22607;49.550;11.940;2024-02-04T05:00:27;6.68;;;2.20;;
36597;SDS011;22607;49.550;11.940;2024-02-04T05:02:54;5.75;;;1.88;;
36597;SDS011;22607;49.550;11.940;2024-02-04T05:05:20;5.72;;;1.90;;
36597;SDS011;22607;49.550;11.940;2024-02-04T05:07:47;5.07;;;1.67;;
36597;SDS011;22607;49.550;11.940;2024-02-04T05:10:14;5.40;;;1.50;;
36597;SDS011;22607;49.550;11.940;2024-02-04T05:12:41;5.70;;;1.90;;
36597;SDS011;22607;49.550;11.940;2024-02-04T05:15:07;4.65;;;1.58;;
36597;SDS011;22607;49.550;11.940;2024-02-04T05:17:34;4.65;;;1.60;;
36597;SDS011;22607;49.550;11.940;2024-02-04T05:20:01;5.15;;;1.75;;
36597;SDS011;22607;49.550;11.940;2024-02-04T05:22:29;4.95;;;1.35;;
36597;SDS011;22607;49.550;11.940;2024-02-04T05:24:56;5.55;;;1.60;;
36597;SDS011;22607;49.550;11.940;2024-02-04T05:27:24;6.10;;;1.70;;
36597;SDS011;22607;49.550;11.940;2024-02-04T05:30:02;6.68;;;1.95;;
36597;SDS011;22607;49.550;11.940;2024-02-04T05:32:29;6.13;;;2.03;;
36597;SDS011;22607;49.550;11.940;2024-02-04T05:34:56;6.00;;;1.77;;
36597;SDS011;22607;49.550;11.940;2024-02-04T05:37:25;6.50;;;1.98;;
36597;SDS011;22607;49.550;11.940;2024-02-04T05:39:51;6.38;;;1.98;;
36597;SDS011;22607;49.550;11.940;2024-02-04T05:42:18;5.32;;;1.60;;
36597;SDS011;22607;49.550;11.940;2024-02-04T05:44:45;6.47;;;2.08;;
36597;SDS011;22607;49.550;11.940;2024-02-04T05:47:12;6.63;;;2.20;;
36597;SDS011;22607;49.550;11.940;2024-02-04T05:49:40;5.38;;;1.75;;
36597;SDS011;22607;49.550;11.940;2024-02-04T05:52:06;6.25;;;2.03;;
36597;SDS011;22607;49.550;11.940;2024-02-04T05:54:37;6.68;;;2.50;;
36597;SDS011;22607;49.550;11.940;2024-02-04T05:59:33;8.02;;;2.45;;
36597;SDS011;22607;49.550;11.940;2024-02-04T06:02:00;6.88;;;2.22;;
36597;SDS011;22607;49.550;11.940;2024-02-04T06:04:27;6.80;;;2.40;;
36597;SDS011;22607;49.550;11.940;2024-02-04T06:06:55;7.32;;;2.33;;
36597;SDS011;22607;49.550;11.940;2024-02-04T06:09:21;7.30;;;2.47;;
36597;SDS011;22607;49.550;11.940;2024-02-04T06:11:48;7.15;;;2.13;;
36597;SDS011;22607;49.550;11.940;2024-02-04T06:14:14;7.07;;;2.28;;
36597;SDS011;22607;49.550;11.940;2024-02-04T06:16:41;5.65;;;1.83;;
36597;SDS011;22607;49.550;11.940;2024-02-04T06:19:07;5.85;;;1.70;;
36597;SDS011;22607;49.550;11.940;2024-02-04T06:21:36;6.53;;;1.85;;
36597;SDS011;22607;49.550;11.940;2024-02-04T06:24:03;5.40;;;1.50;;
36597;SDS011;22607;49.550;11.940;2024-02-04T06:26:29;4.78;;;1.60;;
36597;SDS011;22607;49.550;11.940;2024-02-04T06:28:56;4.47;;;1.45;;
36597;SDS011;22607;49.550;11.940;2024-02-04T06:31:23;5.30;;;1.42;;
36597;SDS011;22607;49.550;11.940;2024-02-04T06:33:49;4.82;;;1.38;;
36597;SDS011;22607;49.550;11.940;2024-02-04T06:36:16;2.40;;;0.82;;
36597;SDS011;22607;49.550;11.940;2024-02-04T06:38:43;2.13;;;0.82;;
36597;SDS011;22607;49.550;11.940;2024-02-04T06:41:09;2.10;;;0.80;;
36597;SDS011;22607;49.550;11.940;2024-02-04T06:43:39;1.73;;;0.63;;
36597;SDS011;22607;49.550;11.940;2024-02-04T06:46:05;2.42;;;0.80;;
36597;SDS011;22607;49.550;11.940;2024-02-04T06:48:32;2.33;;;0.73;;
36597;SDS011;22607;49.550;11.940;2024-02-04T06:50:59;3.08;;;0.88;;
36597;SDS011;22607;49.550;11.940;2024-02-04T06:53:26;2.13;;;0.82;;
36597;SDS011;22607;49.550;11.940;2024-02-04T06:55:52;3.05;;;0.80;;
36597;SDS011;22607;49.550;11.940;2024-02-04T06:58:20;1.60;;;0.65;;
36597;SDS011;22607;49.550;11.940;2024-02-04T07:00:46;1.85;;;0.60;;
36597;SDS011;22607;49.550;11.940;2024-02-04T07:03:13;2.53;;;0.73;;
36597;SDS011;22607;49.550;11.940;2024-02-04T07:05:42;2.08;;;0.82;;
36597;SDS011;22607;49.550;11.940;2024-02-04T07:08:13;2.17;;;0.77;;
36597;SDS011;22607;49.550;11.940;2024-02-04T07:10:40;1.92;;;0.63;;
36597;SDS011;22607;49.550;11.940;2024-02-04T07:13:06;2.80;;;0.80;;
36597;SDS011;22607;49.550;11.940;2024-02-04T07:15:34;1.98;;;0.65;;
36597;SDS011;22607;49.550;11.940;2024-02-04T07:18:01;2.45;;;0.75;;
36597;SDS011;22607;49.550;11.940;2024-02-04T07:20:28;2.42;;;0.80;;
36597;SDS011;22607;49.550;11.940;2024-02-04T07:22:55;2.33;;;0.70;;
36597;SDS011;22607;49.550;11.940;2024-02-04T07:25:21;2.25;;;0.73;;
36597;SDS011;22607;49.550;11.940;2024-02-04T07:27:48;1.52;;;0.80;;
36597;SDS011;22607;49.550;11.940;2024-02-04T07:30:16;1.70;;;0.70;;
36597;SDS011;22607;49.550;11.940;2024-02-04T07:32:43;1.67;;;0.70;;
36597;SDS011;22607;49.550;11.940;2024-02-04T07:35:10;1.88;;;0.82;;
36597;SDS011;22607;49.550;11.940;2024-02-04T07:37:36;2.88;;;1.00;;
36597;SDS011;22607;49.550;11.940;2024-02-04T07:40:03;1.65;;;0.70;;
36597;SDS011;22607;49.550;11.940;2024-02-04T07:42:32;1.95;;;0.90;;
36597;SDS011;22607;49.550;11.940;2024-02-04T07:44:59;1.63;;;0.73;;
36597;SDS011;22607;49.550;11.940;2024-02-04T07:47:25;2.38;;;0.70;;
36597;SDS011;22607;49.550;11.940;2024-02-04T07:49:54;2.50;;;0.70;;
36597;SDS011;22607;49.550;11.940;2024-02-04T07:52:22;3.40;;;0.95;;
36597;SDS011;22607;49.550;11.940;2024-02-04T07:54:51;3.20;;;1.13;;
36597;SDS011;22607;49.550;11.940;2024-02-04T07:57:22;6.13;;;2.00;;
36597;SDS011;22607;49.550;11.940;2024-02-04T07:59:48;3.00;;;1.30;;
36597;SDS011;22607;49.550;11.940;2024-02-04T08:02:15;2.83;;;1.00;;
36597;SDS011;22607;49.550;11.940;2024-02-04T08:04:41;2.78;;;1.00;;
36597;SDS011;22607;49.550;11.940;2024-02-04T08:07:08;5.28;;;2.25;;
36597;SDS011;22607;49.550;11.940;2024-02-04T08:09:36;1.67;;;0.60;;
36597;SDS011;22607;49.550;11.940;2024-02-04T08:12:02;3.35;;;1.17;;
36597;SDS011;22607;49.550;11.940;2024-02-04T08:14:31;2.28;;;0.80;;
36597;SDS011;22607;49.550;11.940;2024-02-04T08:16:58;1.90;;;0.70;;
36597;SDS011;22607;49.550;11.940;2024-02-04T08:19:25;3.10;;;0.90;;
36597;SDS011;22607;49.550;11.940;2024-02-04T08:21:52;1.48;;;0.70;;
36597;SDS011;22607;49.550;11.940;2024-02-04T08:24:19;1.75;;;0.65;;
36597;SDS011;22607;49.550;11.940;2024-02-04T08:26:45;2.08;;;0.80;;
36597;SDS011;22607;49.550;11.940;2024-02-04T08:29:12;1.63;;;0.60;;
36597;SDS011;22607;49.550;11.940;2024-02-04T08:31:39;2.88;;;0.90;;
36597;SDS011;22607;49.550;11.940;2024-02-04T08:34:05;3.05;;;0.70;;
36597;SDS011;22607;49.550;11.940;2024-02-04T08:36:34;2.03;;;0.85;;
36597;SDS011;22607;49.550;11.940;2024-02-04T08:39:01;1.88;;;0.70;;
36597;SDS011;22607;49.550;11.940;2024-02-04T08:41:27;1.70;;;0.70;;
36597;SDS011;22607;49.550;11.940;2024-02-04T08:43:54;3.15;;;0.85;;
36597;SDS011;22607;49.550;11.940;2024-02-04T08:46:20;2.58;;;0.60;;
36597;SDS011;22607;49.550;11.940;2024-02-04T08:48:47;2.08;;;0.70;;
36597;SDS011;22607;49.550;11.940;2024-02-04T08:51:14;1.88;;;0.70;;
36597;SDS011;22607;49.550;11.940;2024-02-04T08:53:42;1.75;;;0.70;;
36597;SDS011;22607;49.550;11.940;2024-02-04T08:56:09;2.33;;;0.80;;
36597;SDS011;22607;49.550;11.940;2024-02-04T08:58:36;1.45;;;0.68;;
36597;SDS011;22607;49.550;11.940;2024-02-04T09:01:04;1.77;;;0.70;;
36597;SDS011;22607;49.550;11.940;2024-02-04T09:03:32;2.58;;;0.70;;
36597;SDS011;22607;49.550;11.940;2024-02-04T09:05:59;2.45;;;0.80;;
36597;SDS011;22607;49.550;11.940;2024-02-04T09:08:26;2.03;;;0.57;;
36597;SDS011;22607;49.550;11.940;2024-02-04T09:10:52;1.42;;;0.60;;
36597;SDS011;22607;49.550;11.940;2024-02-04T09:13:19;2.38;;;0.60;;
36597;SDS011;22607;49.550;11.940;2024-02-04T09:15:48;2.08;;;0.60;;
36597;SDS011;22607;49.550;11.940;2024-02-04T09:18:15;2.22;;;0.70;;
36597;SDS011;22607;49.550;11.940;2024-02-04T09:20:42;10.27;;;3.45;;
36597;SDS011;22607;49.550;11.940;2024-02-04T09:23:09;5.15;;;1.40;;
36597;SDS011;22607;49.550;11.940;2024-02-04T09:25:37;4.35;;;0.80;;
36597;SDS011;22607;49.550;11.940;2024-02-04T09:28:05;9.05;;;2.45;;
36597;SDS011;22607;49.550;11.940;2024-02-04T09:30:33;9.07;;;3.03;;
36597;SDS011;22607;49.550;11.940;2024-02-04T09:33:00;2.58;;;0.88;;
36597;SDS011;22607;49.550;11.940;2024-02-04T09:35:27;1.65;;;0.73;;
36597;SDS011;22607;49.550;11.940;2024-02-04T09:37:54;1.63;;;0.60;;
36597;SDS011;22607;49.550;11.940;2024-02-04T09:40:22;1.92;;;0.90;;
36597;SDS011;22607;49.550;11.940;2024-02-04T09:42:50;2.17;;;0.70;;
36597;SDS011;22607;49.550;11.940;2024-02-04T09:45:18;2.55;;;0.80;;
36597;SDS011;22607;49.550;11.940;2024-02-04T09:47:45;2.28;;;0.80;;
36597;SDS011;22607;49.550;11.940;2024-02-04T09:50:20;3.13;;;1.20;;
36597;SDS011;22607;49.550;11.940;2024-02-04T09:52:48;2.05;;;0.82;;
36597;SDS011;22607;49.550;11.940;2024-02-04T09:55:17;3.00;;;0.90;;
36597;SDS011;22607;49.550;11.940;2024-02-04T09:57:51;2.35;;;0.77;;
36597;SDS011;22607;49.550;11.940;2024-02-04T10:00:18;2.03;;;0.70;;
36597;SDS011;22607;49.550;11.940;2024-02-04T10:02:49;1.95;;;0.73;;
36597;SDS011;22607;49.550;11.940;2024-02-04T10:05:18;3.92;;;0.98;;
36597;SDS011;22607;49.550;11.940;2024-02-04T10:07:51;1.48;;;0.63;;
36597;SDS011;22607;49.550;11.940;2024-02-04T10:10:20;1.65;;;0.70;;
36597;SDS011;22607;49.550;11.940;2024-02-04T10:12:47;2.30;;;0.77;;
36597;SDS011;22607;49.550;11.940;2024-02-04T10:15:13;2.05;;;0.70;;
36597;SDS011;22607;49.550;11.940;2024-02-04T10:17:44;1.65;;;0.70;;
36597;SDS011;22607;49.550;11.940;2024-02-04T10:20:12;1.67;;;0.63;;
36597;SDS011;22607;49.550;11.940;2024-02-04T10:22:45;3.65;;;0.63;;
36597;SDS011;22607;49.550;11.940;2024-02-04T10:25:12;1.98;;;0.80;;
36597;SDS011;22607;49.550;11.940;2024-02-04T10:27:41;1.80;;;0.60;;
36597;SDS011;22607;49.550;11.940;2024-02-04T10:30:13;0.88;;;0.50;;
36597;SDS011;22607;49.550;11.940;2024-02-04T10:32:44;1.00;;;0.60;;
36597;SDS011;22607;49.550;11.940;2024-02-04T10:35:17;1.65;;;0.60;;
36597;SDS011;22607;49.550;11.940;2024-02-04T10:37:46;0.82;;;0.60;;
36597;SDS011;22607;49.550;11.940;2024-02-04T10:40:19;1.63;;;0.60;;
36597;SDS011;22607;49.550;11.940;2024-02-04T10:42:46;1.45;;;0.60;;
36597;SDS011;22607;49.550;11.940;2024-02-04T10:45:16;1.20;;;0.60;;
36597;SDS011;22607;49.550;11.940;2024-02-04T10:47:44;2.28;;;0.80;;
36597;SDS011;22607;49.550;11.940;2024-02-04T10:50:19;1.88;;;0.68;;
36597;SDS011;22607;49.550;11.940;2024-02-04T10:52:49;1.55;;;0.57;;
36597;SDS011;22607;49.550;11.940;2024-02-04T10:55:17;1.88;;;0.60;;
36597;SDS011;22607;49.550;11.940;2024-02-04T10:57:49;1.15;;;0.52;;
36597;SDS011;22607;49.550;11.940;2024-02-04T11:00:20;0.68;;;0.30;;
36597;SDS011;22607;49.550;11.940;2024-02-04T11:02:47;0.90;;;0.40;;
36597;SDS011;22607;49.550;11.940;2024-02-04T11:05:22;1.45;;;0.68;;
36597;SDS011;22607;49.550;11.940;2024-02-04T11:07:49;1.50;;;0.50;;
36597;SDS011;22607;49.550;11.940;2024-02-04T11:10:17;1.40;;;0.60;;
36597;SDS011;22607;49.550;11.940;2024-02-04T11:12:45;1.48;;;0.50;;
36597;SDS011;22607;49.550;11.940;2024-02-04T11:15:15;2.58;;;0.80;;
36597;SDS011;22607;49.550;11.940;2024-02-04T11:17:57;1.83;;;0.82;;
36597;SDS011;22607;49.550;11.940;2024-02-04T11:26:05;1.20;;;0.60;;
36597;SDS011;22607;49.550;11.940;2024-02-04T11:28:32;1.30;;;0.60;;
36597;SDS011;22607;49.550;11.940;2024-02-04T11:31:13;1.33;;;0.50;;
36597;SDS011;22607;49.550;11.940;2024-02-04T11:33:40;1.17;;;0.50;;
36597;SDS011;22607;49.550;11.940;2024-02-04T11:36:07;1.05;;;0.60;;
36597;SDS011;22607;49.550;11.940;2024-02-04T11:38:40;2.20;;;0.70;;
36597;SDS011;22607;49.550;11.940;2024-02-04T11:41:07;1.67;;;0.55;;
36597;SDS011;22607;49.550;11.940;2024-02-04T11:43:37;2.05;;;0.80;;
36597;SDS011;22607;49.550;11.940;2024-02-04T11:46:05;1.23;;;0.50;;
36597;SDS011;22607;49.550;11.940;2024-02-04T11:48:33;1.58;;;0.60;;
36597;SDS011;22607;49.550;11.940;2024-02-04T11:51:01;2.08;;;0.70;;
36597;SDS011;22607;49.550;11.940;2024-02-04T11:53:30;3.97;;;1.00;;
36597;SDS011;22607;49.550;11.940;2024-02-04T11:56:01;5.93;;;1.77;;
36597;SDS011;22607;49.550;11.940;2024-02-04T11:58:29;3.92;;;1.30;;
36597;SDS011;22607;49.550;11.940;2024-02-04T12:00:57;1.95;;;0.70;;
36597;SDS011;22607;49.550;11.940;2024-02-04T12:03:30;1.83;;;0.80;;
36597;SDS011;22607;49.550;11.940;2024-02-04T12:05:58;1.85;;;0.65;;
36597;SDS011;22607;49.550;11.940;2024-02-04T12:08:26;2.17;;;0.73;;
36597;SDS011;22607;49.550;11.940;2024-02-04T12:10:54;2.58;;;0.80;;
36597;SDS011;22607;49.550;11.940;2024-02-04T12:13:21;1.50;;;0.55;;
36597;SDS011;22607;49.550;11.940;2024-02-04T12:15:48;0.93;;;0.60;;
36597;SDS011;22607;49.550;11.940;2024-02-04T12:18:16;4.43;;;1.20;;
36597;SDS011;22607;49.550;11.940;2024-02-04T12:20:47;1.25;;;0.50;;
36597;SDS011;22607;49.550;11.940;2024-02-04T12:23:18;3.05;;;0.80;;
36597;SDS011;22607;49.550;11.940;2024-02-04T12:25:45;1.35;;;0.50;;
36597;SDS011;22607;49.550;11.940;2024-02-04T12:28:12;1.33;;;0.47;;
36597;SDS011;22607;49.550;11.940;2024-02-04T12:30:40;2.50;;;0.95;;
36597;SDS011;22607;49.550;11.940;2024-02-04T12:33:08;1.40;;;0.60;;
36597;SDS011;22607;49.550;11.940;2024-02-04T12:35:36;1.75;;;0.60;;
36597;SDS011;22607;49.550;11.940;2024-02-04T12:38:02;1.08;;;0.40;;
36597;SDS011;22607;49.550;11.940;2024-02-04T12:40:30;1.65;;;0.75;;
36597;SDS011;22607;49.550;11.940;2024-02-04T12:43:01;1.30;;;0.63;;
36597;SDS011;22607;49.550;11.940;2024-02-04T12:45:33;1.02;;;0.50;;
36597;SDS011;22607;49.550;11.940;2024-02-04T12:48:00;2.08;;;0.60;;
36597;SDS011;22607;49.550;11.940;2024-02-04T12:50:28;2.20;;;0.70;;
36597;SDS011;22607;49.550;11.940;2024-02-04T12:53:05;3.10;;;0.70;;
36597;SDS011;22607;49.550;11.940;2024-02-04T12:55:36;2.15;;;0.57;;
36597;SDS011;22607;49.550;11.940;2024-02-04T12:58:07;2.03;;;0.70;;
36597;SDS011;22607;49.550;11.940;2024-02-04T13:00:36;1.73;;;0.50;;
36597;SDS011;22607;49.550;11.940;2024-02-04T13:03:05;1.80;;;0.77;;
36597;SDS011;22607;49.550;11.940;2024-02-04T13:05:34;2.03;;;0.57;;
36597;SDS011;22607;49.550;11.940;2024-02-04T13:08:02;4.22;;;1.02;;
36597;SDS011;22607;49.550;11.940;2024-02-04T13:10:32;1.85;;;0.55;;
36597;SDS011;22607;49.550;11.940;2024-02-04T13:13:08;1.50;;;0.57;;
36597;SDS011;22607;49.550;11.940;2024-02-04T13:15:40;1.45;;;0.60;;
36597;SDS011;22607;49.550;11.940;2024-02-04T13:18:13;2.63;;;0.70;;
36597;SDS011;22607;49.550;11.940;2024-02-04T13:20:43;0.93;;;0.50;;
36597;SDS011;22607;49.550;11.940;2024-02-04T13:23:12;1.10;;;0.60;;
36597;SDS011;22607;49.550;11.940;2024-02-04T13:25:43;1.70;;;0.80;;
36597;SDS011;22607;49.550;11.940;2024-02-04T13:28:11;1.63;;;0.60;;
36597;SDS011;22607;49.550;11.940;2024-02-04T13:30:39;1.88;;;0.60;;
36597;SDS011;22607;49.550;11.940;2024-02-04T13:33:06;1.60;;;0.60;;
36597;SDS011;22607;49.550;11.940;2024-02-04T13:35:32;2.28;;;0.60;;
36597;SDS011;22607;49.550;11.940;2024-02-04T13:37:59;2.15;;;0.73;;
36597;SDS011;22607;49.550;11.940;2024-02-04T13:40:28;1.33;;;0.50;;
36597;SDS011;22607;49.550;11.940;2024-02-04T13:42:54;1.13;;;0.47;;
36597;SDS011;22607;49.550;11.940;2024-02-04T13:45:23;1.17;;;0.60;;
36597;SDS011;22607;49.550;11.940;2024-02-04T13:47:54;1.20;;;0.50;;
36597;SDS011;22607;49.550;11.940;2024-02-04T13:53:06;8.80;;;2.20;;
36597;SDS011;22607;49.550;11.940;2024-02-04T13:55:33;5.25;;;1.25;;
36597;SDS011;22607;49.550;11.940;2024-02-04T13:57:59;9.07;;;2.88;;
36597;SDS011;22607;49.550;11.940;2024-02-04T14:00:27;11.25;;;4.05;;
36597;SDS011;22607;49.550;11.940;2024-02-04T14:02:53;4.85;;;1.80;;
36597;SDS011;22607;49.550;11.940;2024-02-04T14:05:20;2.53;;;1.02;;
36597;SDS011;22607;49.550;11.940;2024-02-04T14:07:48;1.50;;;0.60;;
36597;SDS011;22607;49.550;11.940;2024-02-04T14:10:15;2.35;;;0.70;;
36597;SDS011;22607;49.550;11.940;2024-02-04T14:15:13;0.90;;;0.52;;
36597;SDS011;22607;49.550;11.940;2024-02-04T14:17:40;1.33;;;0.40;;
36597;SDS011;22607;49.550;11.940;2024-02-04T14:20:08;1.83;;;0.60;;
36597;SDS011;22607;49.550;11.940;2024-02-04T14:22:35;1.23;;;0.60;;
36597;SDS011;22607;49.550;11.940;2024-02-04T14:25:02;1.48;;;0.55;;
36597;SDS011;22607;49.550;11.940;2024-02-04T14:27:35;1.10;;;0.60;;
36597;SDS011;22607;49.550;11.940;2024-02-04T14:30:03;1.00;;;0.60;;
36597;SDS011;22607;49.550;11.940;2024-02-04T14:32:29;1.05;;;0.50;;
36597;SDS011;22607;49.550;11.940;2024-02-04T14:34:56;1.42;;;0.75;;
36597;SDS011;22607;49.550;11.940;2024-02-04T14:37:23;0.82;;;0.50;;
36597;SDS011;22607;49.550;11.940;2024-02-04T14:39:50;1.08;;;0.50;;
36597;SDS011;22607;49.550;11.940;2024-02-04T14:42:16;1.23;;;0.50;;
36597;SDS011;22607;49.550;11.940;2024-02-04T14:44:45;1.30;;;0.50;;
36597;SDS011;22607;49.550;11.940;2024-02-04T14:47:11;1.13;;;0.60;;
36597;SDS011;22607;49.550;11.940;2024-02-04T14:49:38;1.30;;;0.60;;
36597;SDS011;22607;49.550;11.940;2024-02-04T14:52:04;1.13;;;0.57;;
36597;SDS011;22607;49.550;11.940;2024-02-04T14:54:31;1.98;;;0.80;;
36597;SDS011;22607;49.550;11.940;2024-02-04T14:56:58;2.70;;;0.60;;
36597;SDS011;22607;49.550;11.940;2024-02-04T15:02:03;1.70;;;0.70;;